sensor_id;sensor_type;location;lat;lon;timestamp;P1;durP1;ratioP1;P2;durP2;ratioP2
31438;SDS011;18062;48.872;9.220;2023-08-21T00:01:36;5.18;;;4.40;;
31438;SDS011;18062;48.872;9.220;2023-08-21T00:04:02;5.47;;;4.30;;
31438;SDS011;18062;48.872;9.220;2023-08-21T00:06:28;6.63;;;4.22;;
31438;SDS011;18062;48.872;9.220;2023-08-21T00:08:54;4.63;;;3.90;;
31438;SDS011;18062;48.872;9.220;2023-08-21T00:11:20;4.22;;;3.83;;
31438;SDS011;18062;48.872;9.220;2023-08-21T00:13:46;5.45;;;4.15;;
31438;SDS011;18062;48.872;9.220;2023-08-21T00:16:14;6.15;;;4.13;;
31438;SDS011;18062;48.872;9.220;2023-08-21T00:18:40;6.22;;;4.38;;
31438;SDS011;18062;48.872;9.220;2023-08-21T00:21:06;4.32;;;3.92;;
31438;SDS011;18062;48.872;9.220;2023-08-21T00:23:32;5.13;;;4.63;;
31438;SDS011;18062;48.872;9.220;2023-08-21T00:25:58;4.35;;;3.95;;
31438;SDS011;18062;48.872;9.220;2023-08-21T00:28:24;6.53;;;4.72;;
31438;SDS011;18062;48.872;9.220;2023-08-21T00:30:51;7.72;;;4.10;;
31438;SDS011;18062;48.872;9.220;2023-08-21T00:33:17;4.53;;;4.13;;
31438;SDS011;18062;48.872;9.220;2023-08-21T00:35:43;4.93;;;4.43;;
31438;SDS011;18062;48.872;9.220;2023-08-21T00:38:08;4.55;;;4.15;;
31438;SDS011;18062;48.872;9.220;2023-08-21T00:40:35;4.15;;;3.75;;
31438;SDS011;18062;48.872;9.220;2023-08-21T00:43:01;5.75;;;4.68;;
31438;SDS011;18062;48.872;9.220;2023-08-21T00:45:27;5.78;;;4.50;;
31438;SDS011;18062;48.872;9.220;2023-08-21T00:47:53;4.60;;;4.20;;
31438;SDS011;18062;48.872;9.220;2023-08-21T00:50:19;5.05;;;4.53;;
31438;SDS011;18062;48.872;9.220;2023-08-21T00:55:13;6.10;;;4.40;;
31438;SDS011;18062;48.872;9.220;2023-08-21T00:57:39;4.72;;;4.28;;
31438;SDS011;18062;48.872;9.220;2023-08-21T01:00:06;4.72;;;3.95;;
31438;SDS011;18062;48.872;9.220;2023-08-21T01:02:35;4.50;;;4.10;;
31438;SDS011;18062;48.872;9.220;2023-08-21T01:05:01;4.18;;;3.78;;
31438;SDS011;18062;48.872;9.220;2023-08-21T01:07:28;4.82;;;4.30;;
31438;SDS011;18062;48.872;9.220;2023-08-21T01:10:04;5.97;;;4.85;;
31438;SDS011;18062;48.872;9.220;2023-08-21T01:15:19;5.00;;;4.50;;
31438;SDS011;18062;48.872;9.220;2023-08-21T01:17:45;5.75;;;4.68;;
31438;SDS011;18062;48.872;9.220;2023-08-21T01:20:11;4.65;;;4.15;;
31438;SDS011;18062;48.872;9.220;2023-08-21T01:22:41;5.05;;;4.25;;
31438;SDS011;18062;48.872;9.220;2023-08-21T01:25:11;4.50;;;4.10;;
31438;SDS011;18062;48.872;9.220;2023-08-21T01:27:38;4.72;;;4.32;;
31438;SDS011;18062;48.872;9.220;2023-08-21T01:30:04;5.38;;;4.88;;
31438;SDS011;18062;48.872;9.220;2023-08-21T01:35:06;5.40;;;4.43;;
31438;SDS011;18062;48.872;9.220;2023-08-21T01:37:33;4.68;;;4.28;;
31438;SDS011;18062;48.872;9.220;2023-08-21T01:39:59;4.65;;;4.03;;
31438;SDS011;18062;48.872;9.220;2023-08-21T01:42:25;4.65;;;4.22;;
31438;SDS011;18062;48.872;9.220;2023-08-21T01:44:51;4.80;;;4.20;;
31438;SDS011;18062;48.872;9.220;2023-08-21T01:47:17;5.80;;;4.28;;
31438;SDS011;18062;48.872;9.220;2023-08-21T01:49:43;5.25;;;4.75;;
31438;SDS011;18062;48.872;9.220;2023-08-21T01:52:09;4.47;;;4.05;;
31438;SDS011;18062;48.872;9.220;2023-08-21T01:54:35;4.68;;;3.97;;
31438;SDS011;18062;48.872;9.220;2023-08-21T01:57:01;4.40;;;4.00;;
31438;SDS011;18062;48.872;9.220;2023-08-21T01:59:28;5.75;;;4.60;;
31438;SDS011;18062;48.872;9.220;2023-08-21T02:01:54;5.07;;;4.57;;
31438;SDS011;18062;48.872;9.220;2023-08-21T02:04:20;6.55;;;5.07;;
31438;SDS011;18062;48.872;9.220;2023-08-21T02:06:46;6.80;;;4.80;;
31438;SDS011;18062;48.872;9.220;2023-08-21T02:09:12;5.32;;;4.47;;
31438;SDS011;18062;48.872;9.220;2023-08-21T02:11:38;5.10;;;4.07;;
31438;SDS011;18062;48.872;9.220;2023-08-21T02:14:04;4.78;;;4.30;;
31438;SDS011;18062;48.872;9.220;2023-08-21T02:16:30;5.28;;;4.55;;
31438;SDS011;18062;48.872;9.220;2023-08-21T02:18:56;5.03;;;4.53;;
31438;SDS011;18062;48.872;9.220;2023-08-21T02:21:23;6.57;;;4.97;;
31438;SDS011;18062;48.872;9.220;2023-08-21T02:23:49;5.70;;;4.60;;
31438;SDS011;18062;48.872;9.220;2023-08-21T02:26:15;5.10;;;4.70;;
31438;SDS011;18062;48.872;9.220;2023-08-21T02:28:41;5.22;;;4.80;;
31438;SDS011;18062;48.872;9.220;2023-08-21T02:31:09;5.50;;;4.67;;
31438;SDS011;18062;48.872;9.220;2023-08-21T02:33:35;5.90;;;4.40;;
31438;SDS011;18062;48.872;9.220;2023-08-21T02:36:01;5.27;;;4.77;;
31438;SDS011;18062;48.872;9.220;2023-08-21T02:38:28;5.13;;;4.70;;
31438;SDS011;18062;48.872;9.220;2023-08-21T02:40:54;5.53;;;5.03;;
31438;SDS011;18062;48.872;9.220;2023-08-21T02:43:20;4.97;;;4.50;;
31438;SDS011;18062;48.872;9.220;2023-08-21T02:45:46;5.30;;;4.80;;
31438;SDS011;18062;48.872;9.220;2023-08-21T02:48:12;5.87;;;4.90;;
31438;SDS011;18062;48.872;9.220;2023-08-21T02:50:38;5.93;;;5.10;;
31438;SDS011;18062;48.872;9.220;2023-08-21T02:53:06;5.30;;;4.80;;
31438;SDS011;18062;48.872;9.220;2023-08-21T02:55:32;5.33;;;4.80;;
31438;SDS011;18062;48.872;9.220;2023-08-21T02:57:58;5.57;;;4.87;;
31438;SDS011;18062;48.872;9.220;2023-08-21T03:00:24;7.33;;;5.23;;
31438;SDS011;18062;48.872;9.220;2023-08-21T03:02:50;6.37;;;4.73;;
31438;SDS011;18062;48.872;9.220;2023-08-21T03:05:16;7.57;;;5.07;;
31438;SDS011;18062;48.872;9.220;2023-08-21T03:07:42;5.83;;;5.23;;
31438;SDS011;18062;48.872;9.220;2023-08-21T03:10:08;6.47;;;5.00;;
31438;SDS011;18062;48.872;9.220;2023-08-21T03:12:35;6.00;;;5.37;;
31438;SDS011;18062;48.872;9.220;2023-08-21T03:15:01;5.87;;;5.27;;
31438;SDS011;18062;48.872;9.220;2023-08-21T03:17:27;5.70;;;5.10;;
31438;SDS011;18062;48.872;9.220;2023-08-21T03:19:53;5.30;;;4.80;;
31438;SDS011;18062;48.872;9.220;2023-08-21T03:22:19;6.23;;;5.10;;
31438;SDS011;18062;48.872;9.220;2023-08-21T03:24:45;5.20;;;4.47;;
31438;SDS011;18062;48.872;9.220;2023-08-21T03:27:11;4.93;;;4.50;;
31438;SDS011;18062;48.872;9.220;2023-08-21T03:29:37;5.67;;;5.07;;
31438;SDS011;18062;48.872;9.220;2023-08-21T03:32:03;5.40;;;4.83;;
31438;SDS011;18062;48.872;9.220;2023-08-21T03:34:29;5.20;;;4.70;;
31438;SDS011;18062;48.872;9.220;2023-08-21T03:36:55;6.73;;;5.00;;
31438;SDS011;18062;48.872;9.220;2023-08-21T03:39:21;5.83;;;5.10;;
31438;SDS011;18062;48.872;9.220;2023-08-21T03:41:47;5.33;;;4.83;;
31438;SDS011;18062;48.872;9.220;2023-08-21T03:44:13;6.13;;;5.50;;
31438;SDS011;18062;48.872;9.220;2023-08-21T03:46:39;5.77;;;5.17;;
31438;SDS011;18062;48.872;9.220;2023-08-21T03:49:05;6.10;;;4.70;;
31438;SDS011;18062;48.872;9.220;2023-08-21T03:51:31;5.57;;;5.07;;
31438;SDS011;18062;48.872;9.220;2023-08-21T03:53:57;6.00;;;5.23;;
31438;SDS011;18062;48.872;9.220;2023-08-21T03:56:23;6.60;;;5.00;;
31438;SDS011;18062;48.872;9.220;2023-08-21T03:58:50;6.27;;;5.10;;
31438;SDS011;18062;48.872;9.220;2023-08-21T04:01:16;6.27;;;5.47;;
31438;SDS011;18062;48.872;9.220;2023-08-21T04:03:42;6.40;;;5.77;;
31438;SDS011;18062;48.872;9.220;2023-08-21T04:06:07;6.00;;;5.07;;
31438;SDS011;18062;48.872;9.220;2023-08-21T04:08:33;5.97;;;5.20;;
31438;SDS011;18062;48.872;9.220;2023-08-21T04:10:59;7.23;;;4.90;;
31438;SDS011;18062;48.872;9.220;2023-08-21T04:13:26;6.20;;;5.23;;
31438;SDS011;18062;48.872;9.220;2023-08-21T04:15:53;5.57;;;4.83;;
31438;SDS011;18062;48.872;9.220;2023-08-21T04:18:20;7.07;;;5.13;;
31438;SDS011;18062;48.872;9.220;2023-08-21T04:20:50;5.40;;;4.90;;
31438;SDS011;18062;48.872;9.220;2023-08-21T04:23:16;5.87;;;5.07;;
31438;SDS011;18062;48.872;9.220;2023-08-21T04:25:42;5.93;;;5.43;;
31438;SDS011;18062;48.872;9.220;2023-08-21T04:28:08;6.33;;;5.73;;
31438;SDS011;18062;48.872;9.220;2023-08-21T04:30:34;5.90;;;5.30;;
31438;SDS011;18062;48.872;9.220;2023-08-21T04:33:00;5.43;;;4.93;;
31438;SDS011;18062;48.872;9.220;2023-08-21T04:35:26;5.53;;;4.93;;
31438;SDS011;18062;48.872;9.220;2023-08-21T04:37:52;6.33;;;5.07;;
31438;SDS011;18062;48.872;9.220;2023-08-21T04:40:18;6.00;;;5.10;;
31438;SDS011;18062;48.872;9.220;2023-08-21T04:42:46;5.40;;;4.90;;
31438;SDS011;18062;48.872;9.220;2023-08-21T04:45:12;6.00;;;5.40;;
31438;SDS011;18062;48.872;9.220;2023-08-21T04:47:38;5.70;;;5.03;;
31438;SDS011;18062;48.872;9.220;2023-08-21T04:50:04;5.97;;;5.30;;
31438;SDS011;18062;48.872;9.220;2023-08-21T04:52:30;6.90;;;5.30;;
31438;SDS011;18062;48.872;9.220;2023-08-21T04:54:56;6.20;;;4.90;;
31438;SDS011;18062;48.872;9.220;2023-08-21T04:57:22;6.23;;;5.03;;
31438;SDS011;18062;48.872;9.220;2023-08-21T04:59:48;6.53;;;5.57;;
31438;SDS011;18062;48.872;9.220;2023-08-21T05:02:14;6.47;;;5.13;;
31438;SDS011;18062;48.872;9.220;2023-08-21T05:04:40;7.33;;;5.60;;
31438;SDS011;18062;48.872;9.220;2023-08-21T05:07:06;5.87;;;4.87;;
31438;SDS011;18062;48.872;9.220;2023-08-21T05:09:32;5.93;;;5.40;;
31438;SDS011;18062;48.872;9.220;2023-08-21T05:11:59;8.70;;;5.40;;
31438;SDS011;18062;48.872;9.220;2023-08-21T05:14:25;6.37;;;5.20;;
31438;SDS011;18062;48.872;9.220;2023-08-21T05:16:51;6.10;;;5.30;;
31438;SDS011;18062;48.872;9.220;2023-08-21T05:19:17;6.50;;;4.83;;
31438;SDS011;18062;48.872;9.220;2023-08-21T05:21:43;6.03;;;5.10;;
31438;SDS011;18062;48.872;9.220;2023-08-21T05:24:09;5.50;;;5.00;;
31438;SDS011;18062;48.872;9.220;2023-08-21T05:26:35;5.50;;;5.00;;
31438;SDS011;18062;48.872;9.220;2023-08-21T05:29:02;6.17;;;5.20;;
31438;SDS011;18062;48.872;9.220;2023-08-21T05:31:28;5.07;;;4.67;;
31438;SDS011;18062;48.872;9.220;2023-08-21T05:33:54;6.13;;;5.03;;
31438;SDS011;18062;48.872;9.220;2023-08-21T05:36:20;5.22;;;4.72;;
31438;SDS011;18062;48.872;9.220;2023-08-21T05:38:46;5.78;;;5.18;;
